Estación Meteorológica Peña el Pijo (Robertgarden) [ 12/09/19 16:25:13 CET ]

Fecha Hora Presion(HPa) Temp (°C) Humedad % Rocio (°C) Viento ( m/s) Direccion Lluvia 1Hora(mm) Lluvia 24H(mm) LLuvia Total(mm)
2019-Nov-27 01:01:44 1002.600 12.1 77 8.2         37.81
2019-Nov-27 02:03:14 1002.000 12.1 77 8.2 2.5 WNW     37.81
2019-Nov-27 03:01:43 1001.100 11.5 80 8.2         37.81
2019-Nov-27 04:01:53 1000.500 12.1 79 8.6 1.2 NNW     37.81
2019-Nov-27 05:01:42 1000.500 12.4 72 7.5 1.6 W     37.81
2019-Nov-27 06:01:43 1001.100 11.5 70 6.2 1.2 NNW     37.81
2019-Nov-27 07:01:49 1001.800 11.0 74 6.6         37.81
2019-Nov-27 08:01:53 1002.400 11.1 74 6.6         37.81
2019-Nov-27 09:01:48 1002.700 11.5 73 6.8         37.81
2019-Nov-27 10:01:56 1003.900 13.1 69 7.6         37.81
2019-Nov-27 11:01:42 1004.300 15.1 59 7.1         37.81
2019-Nov-27 12:01:50 1004.500 13.1 60 5.5         37.81
2019-Nov-27 13:01:43 1004.000 12.5 60 4.9         37.81
2019-Nov-27 14:01:49 1003.700 13.8 57 5.4 2.1 NNE     37.81
2019-Nov-27 15:01:45 1003.500 14.3 55 5.4         37.81
2019-Nov-27 16:01:48 1003.300 13.0 55 4.1         37.81
2019-Nov-27 17:02:05 1003.300 10.8 61 3.5 2.5 NW     37.81
2019-Nov-27 18:01:51 1003.700 9.9 66 3.8         37.81
2019-Nov-27 19:01:42 1003.700 9.4 69 4.0         37.81
2019-Nov-27 20:01:59 1004.500 8.8 71 3.8         37.81
2019-Nov-27 21:01:43 1004.500 9.1 70 3.9 2.2 NW     37.81
2019-Nov-27 22:01:47 1005.700 8.9 72 4.1         37.81
2019-Nov-27 23:01:44 1005.900 9.1 71 4.1         37.81

Temperatura Máxima:15°    Temperatura Mínima:
Presión Máxima:1005.900 Hpa    Presión Mínima:1000.500 Hpa


Volver